Flight Track Log - Related Links

Times and Time Zones

All times are in EDT time to prevent confusion due to time zone crossing. See the SKW6488 flight status page for this flight to view local times or setup timezone preferences in your user account.

Time Position Orientation Groundspeed Altitude Reporting Facility
EDT Latitude Longitude Course Direction KTS MPH feet Rate Location/Type
Thu 12:18:15 PM 43.1570 -86.2510 172° South  Level FlightAware Approximate
Thu 12:19:31 PM 43.0608 -86.2325 200° South 203 234 5,700  Level Chicago Center
Thu 12:20:31 PM 43.0092 -86.2578 233° Southwest 214 246 7,500 2,300 Climbing Chicago Center
Thu 12:21:31 PM 42.9656 -86.3367 229° Southwest 270 311 10,300 2,150 Climbing Chicago Center
Thu 12:22:31 PM 42.9175 -86.4128 228° Southwest 270 311 11,800 1,750 Climbing Chicago Center
Thu 12:23:31 PM 42.8653 -86.4917 229° Southwest 270 311 13,800 1,900 Climbing Chicago Center
Thu 12:24:31 PM 42.8111 -86.5761 228° Southwest 281 323 15,600 1,100 Climbing Chicago Center
Thu 12:25:31 PM 42.7506 -86.6664 233° Southwest 307 353 16,000 200 Climbing Chicago Center
Thu 12:26:31 PM 42.6906 -86.7736 235° Southwest 336 387 16,000 -347 Level Chicago Center
Thu 12:27:32 PM 42.6306 -86.8919 233° Southwest 348 400 15,300 -950 Descending Chicago Center
Thu 12:28:31 PM 42.5725 -86.9983 233° Southwest 354 407 14,100 -1,210 Descending Chicago Center
Thu 12:29:31 PM 42.5181 -87.0961 236° Southwest 354 407 12,900 -1,250 Descending Chicago Center
Thu 12:30:31 PM 42.4758 -87.1822 233° Southwest 317 365 11,600 -1,350 Descending Chicago Center
Thu 12:31:31 PM 42.4336 -87.2569 238° Southwest 283 326 10,200 -1,300 Descending Chicago Center
Thu 12:32:31 PM 42.3933 -87.3425 233° Southwest 272 313 9,000 -600 Descending Chicago Center
Thu 12:33:31 PM 42.3589 -87.4053 169° South 252 290 9,000 -200 Level Chicago Center
Thu 12:34:31 PM 42.2858 -87.3853 174° South 249 287 8,600 -992 Descending Chicago Center
Thu 12:35:32 PM 42.2189 -87.3761 167° South 257 296 7,000 -800 Descending Chicago Center
Thu 12:36:31 PM 42.1433 -87.3533 170° South 267 307 7,000  Level Chicago Center
Thu 12:37:31 PM 42.0703 -87.3358 214° Southwest 267 307 7,000  Level Chicago Center
Thu 12:38:49 PM 42.0000 -87.4000 255° West 240 276 7,000  Level Chicago TRACON
Thu 12:39:49 PM 41.9833 -87.4833 270° West 249 287 7,000 -684 Level Chicago TRACON
Thu 12:40:43 PM 41.9833 -87.5667 270° West 256 295 5,700 -1,579 Descending Chicago TRACON
Thu 12:41:43 PM 41.9833 -87.6500 270° West 240 276 4,000 -1,350 Descending Chicago TRACON
Thu 12:42:43 PM 41.9833 -87.7333 270° West 208 239 3,000 -1,000 Descending Chicago TRACON

Login

Don't have an account? Register now (free) for customized features, flight alerts, and more!